sensor_id;sensor_type;location;lat;lon;timestamp;temperature;humidity
6146;DHT22;3104;50.348;7.620;2022-11-02T00:01:39;12.70;99.90
6146;DHT22;3104;50.348;7.620;2022-11-02T00:04:05;12.70;99.90
6146;DHT22;3104;50.348;7.620;2022-11-02T00:06:31;12.70;99.90
6146;DHT22;3104;50.348;7.620;2022-11-02T00:08:57;12.70;99.90
6146;DHT22;3104;50.348;7.620;2022-11-02T00:11:22;12.50;99.90
6146;DHT22;3104;50.348;7.620;2022-11-02T00:13:48;12.70;99.90
6146;DHT22;3104;50.348;7.620;2022-11-02T00:16:14;12.70;99.90
6146;DHT22;3104;50.348;7.620;2022-11-02T00:18:42;12.70;99.90
6146;DHT22;3104;50.348;7.620;2022-11-02T00:21:09;12.70;99.90
6146;DHT22;3104;50.348;7.620;2022-11-02T00:23:35;12.70;99.90
6146;DHT22;3104;50.348;7.620;2022-11-02T00:26:01;12.60;99.90
6146;DHT22;3104;50.348;7.620;2022-11-02T00:28:27;12.60;99.90
6146;DHT22;3104;50.348;7.620;2022-11-02T00:30:54;12.50;99.90
6146;DHT22;3104;50.348;7.620;2022-11-02T00:33:19;12.50;99.90
6146;DHT22;3104;50.348;7.620;2022-11-02T00:35:45;12.50;99.90
6146;DHT22;3104;50.348;7.620;2022-11-02T00:38:11;12.40;99.90
6146;DHT22;3104;50.348;7.620;2022-11-02T00:40:37;12.50;99.90
6146;DHT22;3104;50.348;7.620;2022-11-02T00:43:02;12.40;99.90
6146;DHT22;3104;50.348;7.620;2022-11-02T00:45:28;12.40;99.90
6146;DHT22;3104;50.348;7.620;2022-11-02T00:47:54;12.50;99.90
6146;DHT22;3104;50.348;7.620;2022-11-02T00:50:19;12.50;99.90
6146;DHT22;3104;50.348;7.620;2022-11-02T00:52:45;12.50;99.90
6146;DHT22;3104;50.348;7.620;2022-11-02T00:55:11;12.60;99.90
6146;DHT22;3104;50.348;7.620;2022-11-02T00:57:38;12.40;99.90
6146;DHT22;3104;50.348;7.620;2022-11-02T01:00:05;12.30;99.90
6146;DHT22;3104;50.348;7.620;2022-11-02T01:02:32;12.40;99.90
6146;DHT22;3104;50.348;7.620;2022-11-02T01:04:58;12.40;99.90
6146;DHT22;3104;50.348;7.620;2022-11-02T01:07:23;12.40;99.90
6146;DHT22;3104;50.348;7.620;2022-11-02T01:09:49;12.20;99.90
6146;DHT22;3104;50.348;7.620;2022-11-02T01:12:14;12.20;99.90
6146;DHT22;3104;50.348;7.620;2022-11-02T01:14:40;12.30;99.90
6146;DHT22;3104;50.348;7.620;2022-11-02T01:17:06;12.20;99.90
6146;DHT22;3104;50.348;7.620;2022-11-02T01:19:31;12.20;99.90
6146;DHT22;3104;50.348;7.620;2022-11-02T01:21:57;12.30;99.90
6146;DHT22;3104;50.348;7.620;2022-11-02T01:24:22;12.30;99.90
6146;DHT22;3104;50.348;7.620;2022-11-02T01:26:49;12.30;99.90
6146;DHT22;3104;50.348;7.620;2022-11-02T01:29:16;12.20;99.90
6146;DHT22;3104;50.348;7.620;2022-11-02T01:31:41;12.30;99.90
6146;DHT22;3104;50.348;7.620;2022-11-02T01:34:07;12.30;99.90
6146;DHT22;3104;50.348;7.620;2022-11-02T01:36:32;12.30;99.90
6146;DHT22;3104;50.348;7.620;2022-11-02T01:38:58;12.30;99.90
6146;DHT22;3104;50.348;7.620;2022-11-02T01:41:24;12.20;99.90
6146;DHT22;3104;50.348;7.620;2022-11-02T01:43:53;12.20;99.90
6146;DHT22;3104;50.348;7.620;2022-11-02T01:46:26;12.30;99.90
6146;DHT22;3104;50.348;7.620;2022-11-02T01:49:07;12.30;99.90
6146;DHT22;3104;50.348;7.620;2022-11-02T01:51:55;12.40;99.90
6146;DHT22;3104;50.348;7.620;2022-11-02T01:54:29;12.20;99.90
6146;DHT22;3104;50.348;7.620;2022-11-02T01:57:04;12.30;99.90
6146;DHT22;3104;50.348;7.620;2022-11-02T01:59:34;12.40;99.90
6146;DHT22;3104;50.348;7.620;2022-11-02T02:02:04;12.40;99.90
6146;DHT22;3104;50.348;7.620;2022-11-02T02:04:31;12.50;99.90
6146;DHT22;3104;50.348;7.620;2022-11-02T02:06:57;12.50;99.90
6146;DHT22;3104;50.348;7.620;2022-11-02T02:09:23;12.50;99.90
6146;DHT22;3104;50.348;7.620;2022-11-02T02:11:49;12.40;99.90
6146;DHT22;3104;50.348;7.620;2022-11-02T02:14:17;12.40;99.90
6146;DHT22;3104;50.348;7.620;2022-11-02T02:20:16;12.40;99.90
6146;DHT22;3104;50.348;7.620;2022-11-02T02:25:13;12.70;99.90
6146;DHT22;3104;50.348;7.620;2022-11-02T02:28:03;12.70;99.90
6146;DHT22;3104;50.348;7.620;2022-11-02T02:30:38;12.70;99.90
6146;DHT22;3104;50.348;7.620;2022-11-02T02:33:10;12.80;99.90
6146;DHT22;3104;50.348;7.620;2022-11-02T02:35:45;12.70;99.90
6146;DHT22;3104;50.348;7.620;2022-11-02T02:38:27;12.60;99.90
6146;DHT22;3104;50.348;7.620;2022-11-02T02:41:09;12.60;99.90
6146;DHT22;3104;50.348;7.620;2022-11-02T02:43:36;12.60;99.90
6146;DHT22;3104;50.348;7.620;2022-11-02T02:46:12;12.80;99.90
6146;DHT22;3104;50.348;7.620;2022-11-02T02:48:41;12.80;99.90
6146;DHT22;3104;50.348;7.620;2022-11-02T02:51:19;12.90;99.90
6146;DHT22;3104;50.348;7.620;2022-11-02T02:54:06;12.90;99.90
6146;DHT22;3104;50.348;7.620;2022-11-02T02:56:42;12.90;99.90
6146;DHT22;3104;50.348;7.620;2022-11-02T02:59:29;12.90;99.90
6146;DHT22;3104;50.348;7.620;2022-11-02T03:01:56;13.00;99.90
6146;DHT22;3104;50.348;7.620;2022-11-02T03:04:23;12.90;99.90
6146;DHT22;3104;50.348;7.620;2022-11-02T03:06:52;12.90;99.90
6146;DHT22;3104;50.348;7.620;2022-11-02T03:09:40;13.00;99.90
6146;DHT22;3104;50.348;7.620;2022-11-02T03:15:12;13.10;99.90
6146;DHT22;3104;50.348;7.620;2022-11-02T03:18:05;13.00;99.90
6146;DHT22;3104;50.348;7.620;2022-11-02T03:20:52;13.10;99.90
6146;DHT22;3104;50.348;7.620;2022-11-02T03:23:45;13.10;99.90
6146;DHT22;3104;50.348;7.620;2022-11-02T03:26:21;13.10;99.90
6146;DHT22;3104;50.348;7.620;2022-11-02T03:29:07;12.90;99.90
6146;DHT22;3104;50.348;7.620;2022-11-02T03:34:35;12.90;99.90
6146;DHT22;3104;50.348;7.620;2022-11-02T03:39:52;12.80;99.90
6146;DHT22;3104;50.348;7.620;2022-11-02T03:42:21;12.90;99.90
6146;DHT22;3104;50.348;7.620;2022-11-02T03:44:49;13.00;99.90
6146;DHT22;3104;50.348;7.620;2022-11-02T03:47:20;13.00;99.90
6146;DHT22;3104;50.348;7.620;2022-11-02T03:49:47;12.90;99.90
6146;DHT22;3104;50.348;7.620;2022-11-02T03:52:21;12.90;99.90
6146;DHT22;3104;50.348;7.620;2022-11-02T03:54:57;12.90;99.90
6146;DHT22;3104;50.348;7.620;2022-11-02T03:57:33;12.80;99.90
6146;DHT22;3104;50.348;7.620;2022-11-02T04:00:08;12.80;99.90
6146;DHT22;3104;50.348;7.620;2022-11-02T04:02:36;12.80;99.90
6146;DHT22;3104;50.348;7.620;2022-11-02T04:05:03;12.80;99.90
6146;DHT22;3104;50.348;7.620;2022-11-02T04:07:32;12.80;99.90
6146;DHT22;3104;50.348;7.620;2022-11-02T04:10:19;12.80;99.90
6146;DHT22;3104;50.348;7.620;2022-11-02T04:12:44;12.80;99.90
6146;DHT22;3104;50.348;7.620;2022-11-02T04:15:29;12.90;99.90
6146;DHT22;3104;50.348;7.620;2022-11-02T04:17:54;12.80;99.90
6146;DHT22;3104;50.348;7.620;2022-11-02T04:20:38;12.80;99.90
6146;DHT22;3104;50.348;7.620;2022-11-02T04:23:04;12.80;99.90
6146;DHT22;3104;50.348;7.620;2022-11-02T04:25:54;12.90;99.90
6146;DHT22;3104;50.348;7.620;2022-11-02T04:28:20;12.80;99.90
6146;DHT22;3104;50.348;7.620;2022-11-02T04:30:45;12.80;99.90
6146;DHT22;3104;50.348;7.620;2022-11-02T04:33:11;12.80;99.90
6146;DHT22;3104;50.348;7.620;2022-11-02T04:36:01;12.70;99.90
6146;DHT22;3104;50.348;7.620;2022-11-02T04:38:31;12.50;99.90
6146;DHT22;3104;50.348;7.620;2022-11-02T04:43:51;12.60;99.90
6146;DHT22;3104;50.348;7.620;2022-11-02T04:46:19;12.60;99.90
6146;DHT22;3104;50.348;7.620;2022-11-02T04:48:45;12.50;99.90
6146;DHT22;3104;50.348;7.620;2022-11-02T04:51:10;12.60;99.90
6146;DHT22;3104;50.348;7.620;2022-11-02T04:53:36;12.60;99.90
6146;DHT22;3104;50.348;7.620;2022-11-02T04:56:01;12.50;99.90
6146;DHT22;3104;50.348;7.620;2022-11-02T04:58:27;12.30;99.90
6146;DHT22;3104;50.348;7.620;2022-11-02T05:00:52;12.30;99.90
6146;DHT22;3104;50.348;7.620;2022-11-02T05:03:18;12.40;99.90
6146;DHT22;3104;50.348;7.620;2022-11-02T05:05:43;12.60;99.90
6146;DHT22;3104;50.348;7.620;2022-11-02T05:08:09;12.50;99.90
6146;DHT22;3104;50.348;7.620;2022-11-02T05:10:35;12.40;99.90
6146;DHT22;3104;50.348;7.620;2022-11-02T05:13:00;12.50;99.90
6146;DHT22;3104;50.348;7.620;2022-11-02T05:15:26;12.60;99.90
6146;DHT22;3104;50.348;7.620;2022-11-02T05:17:51;12.60;99.90
6146;DHT22;3104;50.348;7.620;2022-11-02T05:20:17;12.70;99.90
6146;DHT22;3104;50.348;7.620;2022-11-02T05:22:43;12.60;99.90
6146;DHT22;3104;50.348;7.620;2022-11-02T05:25:09;12.40;99.90
6146;DHT22;3104;50.348;7.620;2022-11-02T05:27:35;12.50;99.90
6146;DHT22;3104;50.348;7.620;2022-11-02T05:30:00;12.60;99.90
6146;DHT22;3104;50.348;7.620;2022-11-02T05:32:26;12.60;99.90
6146;DHT22;3104;50.348;7.620;2022-11-02T05:34:52;12.60;99.90
6146;DHT22;3104;50.348;7.620;2022-11-02T05:37:18;12.60;99.90
6146;DHT22;3104;50.348;7.620;2022-11-02T05:39:43;12.50;99.90
6146;DHT22;3104;50.348;7.620;2022-11-02T05:42:09;12.50;99.90
6146;DHT22;3104;50.348;7.620;2022-11-02T05:44:35;12.50;99.90
6146;DHT22;3104;50.348;7.620;2022-11-02T05:47:01;12.60;99.90
6146;DHT22;3104;50.348;7.620;2022-11-02T05:49:27;12.50;99.90
6146;DHT22;3104;50.348;7.620;2022-11-02T05:51:53;12.40;99.90
6146;DHT22;3104;50.348;7.620;2022-11-02T05:54:19;12.30;99.90
6146;DHT22;3104;50.348;7.620;2022-11-02T05:56:45;12.30;99.90
6146;DHT22;3104;50.348;7.620;2022-11-02T05:59:11;12.20;99.90
6146;DHT22;3104;50.348;7.620;2022-11-02T06:01:36;12.20;99.90
6146;DHT22;3104;50.348;7.620;2022-11-02T06:04:04;12.30;99.90
6146;DHT22;3104;50.348;7.620;2022-11-02T06:06:29;12.20;99.90
6146;DHT22;3104;50.348;7.620;2022-11-02T06:08:55;12.30;99.90
6146;DHT22;3104;50.348;7.620;2022-11-02T06:11:20;12.30;99.90
6146;DHT22;3104;50.348;7.620;2022-11-02T06:13:48;12.30;99.90
6146;DHT22;3104;50.348;7.620;2022-11-02T06:16:15;12.20;99.90
6146;DHT22;3104;50.348;7.620;2022-11-02T06:18:40;12.00;99.90
6146;DHT22;3104;50.348;7.620;2022-11-02T06:21:06;12.10;99.90
6146;DHT22;3104;50.348;7.620;2022-11-02T06:23:32;12.00;99.90
6146;DHT22;3104;50.348;7.620;2022-11-02T06:25:58;12.10;99.90
6146;DHT22;3104;50.348;7.620;2022-11-02T06:28:25;12.00;99.90
6146;DHT22;3104;50.348;7.620;2022-11-02T06:30:51;12.00;99.90
6146;DHT22;3104;50.348;7.620;2022-11-02T06:33:17;11.90;99.90
6146;DHT22;3104;50.348;7.620;2022-11-02T06:35:48;12.00;99.90
6146;DHT22;3104;50.348;7.620;2022-11-02T06:38:15;12.00;99.90
6146;DHT22;3104;50.348;7.620;2022-11-02T06:40:40;11.90;99.90
6146;DHT22;3104;50.348;7.620;2022-11-02T06:43:06;12.00;99.90
6146;DHT22;3104;50.348;7.620;2022-11-02T06:45:32;12.00;99.90
6146;DHT22;3104;50.348;7.620;2022-11-02T06:47:58;11.90;99.90
6146;DHT22;3104;50.348;7.620;2022-11-02T06:50:23;12.00;99.90
6146;DHT22;3104;50.348;7.620;2022-11-02T06:52:50;12.00;99.90
6146;DHT22;3104;50.348;7.620;2022-11-02T06:55:17;12.10;99.90
6146;DHT22;3104;50.348;7.620;2022-11-02T06:57:43;12.10;99.90
6146;DHT22;3104;50.348;7.620;2022-11-02T07:00:11;12.10;99.90
6146;DHT22;3104;50.348;7.620;2022-11-02T07:02:38;12.00;99.90
6146;DHT22;3104;50.348;7.620;2022-11-02T07:05:04;12.10;99.90
6146;DHT22;3104;50.348;7.620;2022-11-02T07:07:30;12.00;99.90
6146;DHT22;3104;50.348;7.620;2022-11-02T07:09:55;12.00;99.90
6146;DHT22;3104;50.348;7.620;2022-11-02T07:12:21;12.00;99.90
6146;DHT22;3104;50.348;7.620;2022-11-02T07:14:47;12.00;99.90
6146;DHT22;3104;50.348;7.620;2022-11-02T07:17:12;12.00;99.90
6146;DHT22;3104;50.348;7.620;2022-11-02T07:19:38;11.90;99.90
6146;DHT22;3104;50.348;7.620;2022-11-02T07:22:04;11.90;99.90
6146;DHT22;3104;50.348;7.620;2022-11-02T07:24:29;11.90;99.90
6146;DHT22;3104;50.348;7.620;2022-11-02T07:26:55;11.90;99.90
6146;DHT22;3104;50.348;7.620;2022-11-02T07:29:20;11.90;99.90
6146;DHT22;3104;50.348;7.620;2022-11-02T07:31:46;12.00;99.90
6146;DHT22;3104;50.348;7.620;2022-11-02T07:34:12;11.90;99.90
6146;DHT22;3104;50.348;7.620;2022-11-02T07:36:38;12.00;99.90
6146;DHT22;3104;50.348;7.620;2022-11-02T07:39:04;11.90;99.90
6146;DHT22;3104;50.348;7.620;2022-11-02T07:41:30;11.90;99.90
6146;DHT22;3104;50.348;7.620;2022-11-02T07:43:55;12.00;99.90
6146;DHT22;3104;50.348;7.620;2022-11-02T07:46:21;11.90;99.90
6146;DHT22;3104;50.348;7.620;2022-11-02T07:48:46;12.00;99.90
6146;DHT22;3104;50.348;7.620;2022-11-02T07:51:12;12.00;99.90
6146;DHT22;3104;50.348;7.620;2022-11-02T07:53:38;12.00;99.90
6146;DHT22;3104;50.348;7.620;2022-11-02T07:56:04;12.00;99.90
6146;DHT22;3104;50.348;7.620;2022-11-02T07:58:31;12.00;99.90
6146;DHT22;3104;50.348;7.620;2022-11-02T08:00:57;12.10;99.90
6146;DHT22;3104;50.348;7.620;2022-11-02T08:03:24;12.10;99.90
6146;DHT22;3104;50.348;7.620;2022-11-02T08:05:49;12.20;99.90
6146;DHT22;3104;50.348;7.620;2022-11-02T08:08:18;12.30;99.90
6146;DHT22;3104;50.348;7.620;2022-11-02T08:10:46;12.30;99.90
6146;DHT22;3104;50.348;7.620;2022-11-02T08:13:15;12.30;99.90
6146;DHT22;3104;50.348;7.620;2022-11-02T08:15:41;12.30;99.90
6146;DHT22;3104;50.348;7.620;2022-11-02T08:18:13;12.30;99.90
6146;DHT22;3104;50.348;7.620;2022-11-02T08:20:39;12.40;99.90
6146;DHT22;3104;50.348;7.620;2022-11-02T08:23:05;12.60;99.90
6146;DHT22;3104;50.348;7.620;2022-11-02T08:25:32;12.60;99.90
6146;DHT22;3104;50.348;7.620;2022-11-02T08:27:58;12.60;99.90
6146;DHT22;3104;50.348;7.620;2022-11-02T08:30:25;12.70;99.90
6146;DHT22;3104;50.348;7.620;2022-11-02T08:32:51;12.70;99.90
6146;DHT22;3104;50.348;7.620;2022-11-02T08:35:16;12.70;99.90
6146;DHT22;3104;50.348;7.620;2022-11-02T08:37:42;12.60;99.90
6146;DHT22;3104;50.348;7.620;2022-11-02T08:40:08;12.70;99.90
6146;DHT22;3104;50.348;7.620;2022-11-02T08:42:34;12.70;99.90
6146;DHT22;3104;50.348;7.620;2022-11-02T08:45:04;12.60;99.90
6146;DHT22;3104;50.348;7.620;2022-11-02T08:47:31;12.60;99.90
6146;DHT22;3104;50.348;7.620;2022-11-02T08:49:56;12.60;99.90
6146;DHT22;3104;50.348;7.620;2022-11-02T08:52:22;12.70;99.90
6146;DHT22;3104;50.348;7.620;2022-11-02T08:54:47;13.20;99.90
6146;DHT22;3104;50.348;7.620;2022-11-02T08:57:13;13.60;99.90
6146;DHT22;3104;50.348;7.620;2022-11-02T08:59:38;13.80;99.90
6146;DHT22;3104;50.348;7.620;2022-11-02T09:02:04;14.20;99.90
6146;DHT22;3104;50.348;7.620;2022-11-02T09:04:29;13.60;99.90
6146;DHT22;3104;50.348;7.620;2022-11-02T09:06:55;14.00;99.90
6146;DHT22;3104;50.348;7.620;2022-11-02T09:09:21;13.80;99.90
6146;DHT22;3104;50.348;7.620;2022-11-02T09:11:49;13.90;99.90
6146;DHT22;3104;50.348;7.620;2022-11-02T09:14:14;13.90;99.90
6146;DHT22;3104;50.348;7.620;2022-11-02T09:16:40;14.20;99.90
6146;DHT22;3104;50.348;7.620;2022-11-02T09:19:05;14.00;99.90
6146;DHT22;3104;50.348;7.620;2022-11-02T09:21:31;13.30;99.90
6146;DHT22;3104;50.348;7.620;2022-11-02T09:23:56;13.30;99.90
6146;DHT22;3104;50.348;7.620;2022-11-02T09:26:22;13.20;99.90
6146;DHT22;3104;50.348;7.620;2022-11-02T09:28:48;13.20;99.90
6146;DHT22;3104;50.348;7.620;2022-11-02T09:31:13;13.30;99.90
6146;DHT22;3104;50.348;7.620;2022-11-02T09:33:39;13.10;99.90
6146;DHT22;3104;50.348;7.620;2022-11-02T09:36:05;13.00;99.90
6146;DHT22;3104;50.348;7.620;2022-11-02T09:38:31;13.10;99.90
6146;DHT22;3104;50.348;7.620;2022-11-02T09:41:25;13.20;99.90
6146;DHT22;3104;50.348;7.620;2022-11-02T09:44:08;13.20;99.90
6146;DHT22;3104;50.348;7.620;2022-11-02T09:46:39;13.20;99.90
6146;DHT22;3104;50.348;7.620;2022-11-02T09:51:40;13.40;99.90
6146;DHT22;3104;50.348;7.620;2022-11-02T09:54:39;13.40;99.90
6146;DHT22;3104;50.348;7.620;2022-11-02T09:57:15;13.50;99.90
6146;DHT22;3104;50.348;7.620;2022-11-02T09:59:42;13.50;99.90
6146;DHT22;3104;50.348;7.620;2022-11-02T10:05:04;13.40;99.90
6146;DHT22;3104;50.348;7.620;2022-11-02T10:15:38;13.60;99.90
6146;DHT22;3104;50.348;7.620;2022-11-02T10:18:12;13.70;99.90
6146;DHT22;3104;50.348;7.620;2022-11-02T10:20:45;13.70;99.90
6146;DHT22;3104;50.348;7.620;2022-11-02T10:23:23;13.80;99.90
6146;DHT22;3104;50.348;7.620;2022-11-02T10:25:50;13.80;99.90
6146;DHT22;3104;50.348;7.620;2022-11-02T10:28:23;13.70;99.90
6146;DHT22;3104;50.348;7.620;2022-11-02T10:30:51;13.70;99.90
6146;DHT22;3104;50.348;7.620;2022-11-02T10:33:22;13.60;99.90
6146;DHT22;3104;50.348;7.620;2022-11-02T10:44:55;14.10;99.90
6146;DHT22;3104;50.348;7.620;2022-11-02T10:47:17;14.20;99.90
6146;DHT22;3104;50.348;7.620;2022-11-02T10:50:18;14.40;99.90
6146;DHT22;3104;50.348;7.620;2022-11-02T10:52:48;14.50;99.90
6146;DHT22;3104;50.348;7.620;2022-11-02T10:57:50;14.90;99.90
6146;DHT22;3104;50.348;7.620;2022-11-02T11:00:28;14.90;99.90
6146;DHT22;3104;50.348;7.620;2022-11-02T11:03:07;14.60;99.90
6146;DHT22;3104;50.348;7.620;2022-11-02T11:05:42;14.90;99.90
6146;DHT22;3104;50.348;7.620;2022-11-02T11:08:39;15.10;99.90
6146;DHT22;3104;50.348;7.620;2022-11-02T11:13:35;15.20;99.90
6146;DHT22;3104;50.348;7.620;2022-11-02T11:16:02;15.20;99.90
6146;DHT22;3104;50.348;7.620;2022-11-02T11:18:28;15.00;99.90
6146;DHT22;3104;50.348;7.620;2022-11-02T11:20:54;14.60;99.90
6146;DHT22;3104;50.348;7.620;2022-11-02T11:23:25;14.90;99.90
6146;DHT22;3104;50.348;7.620;2022-11-02T11:26:03;14.90;99.90
6146;DHT22;3104;50.348;7.620;2022-11-02T11:28:37;15.40;99.90
6146;DHT22;3104;50.348;7.620;2022-11-02T11:31:09;15.60;99.90
6146;DHT22;3104;50.348;7.620;2022-11-02T11:33:54;15.30;99.90
6146;DHT22;3104;50.348;7.620;2022-11-02T11:36:26;15.30;99.90
6146;DHT22;3104;50.348;7.620;2022-11-02T11:38:56;15.70;99.90
6146;DHT22;3104;50.348;7.620;2022-11-02T11:41:23;16.00;99.90
6146;DHT22;3104;50.348;7.620;2022-11-02T11:43:50;15.90;99.90
6146;DHT22;3104;50.348;7.620;2022-11-02T11:46:16;16.30;99.90
6146;DHT22;3104;50.348;7.620;2022-11-02T11:51:39;16.40;99.50
6146;DHT22;3104;50.348;7.620;2022-11-02T11:56:54;15.40;99.90
6146;DHT22;3104;50.348;7.620;2022-11-02T11:59:32;15.30;99.90
6146;DHT22;3104;50.348;7.620;2022-11-02T12:02:47;15.10;99.90
6146;DHT22;3104;50.348;7.620;2022-11-02T12:05:25;15.70;99.90
6146;DHT22;3104;50.348;7.620;2022-11-02T12:10:42;16.00;99.90
6146;DHT22;3104;50.348;7.620;2022-11-02T12:13:16;16.20;99.90
6146;DHT22;3104;50.348;7.620;2022-11-02T12:24:30;16.50;96.30
6146;DHT22;3104;50.348;7.620;2022-11-02T12:51:25;16.20;95.40
6146;DHT22;3104;50.348;7.620;2022-11-02T12:53:56;16.50;90.00
6146;DHT22;3104;50.348;7.620;2022-11-02T12:56:45;16.80;86.70
6146;DHT22;3104;50.348;7.620;2022-11-02T12:59:27;16.80;83.30
6146;DHT22;3104;50.348;7.620;2022-11-02T13:02:17;17.10;77.50
6146;DHT22;3104;50.348;7.620;2022-11-02T13:04:57;16.50;83.40
6146;DHT22;3104;50.348;7.620;2022-11-02T13:07:30;16.60;79.60
6146;DHT22;3104;50.348;7.620;2022-11-02T13:10:12;16.00;86.90
6146;DHT22;3104;50.348;7.620;2022-11-02T13:12:40;16.40;87.90
6146;DHT22;3104;50.348;7.620;2022-11-02T13:15:12;16.50;84.20
6146;DHT22;3104;50.348;7.620;2022-11-02T13:17:43;16.40;89.40
6146;DHT22;3104;50.348;7.620;2022-11-02T13:20:18;16.30;88.50
6146;DHT22;3104;50.348;7.620;2022-11-02T13:22:49;16.00;93.50
6146;DHT22;3104;50.348;7.620;2022-11-02T13:25:26;15.80;95.60
6146;DHT22;3104;50.348;7.620;2022-11-02T13:27:58;16.10;95.90
6146;DHT22;3104;50.348;7.620;2022-11-02T13:30:25;16.30;92.90
6146;DHT22;3104;50.348;7.620;2022-11-02T13:33:00;16.40;93.00
6146;DHT22;3104;50.348;7.620;2022-11-02T13:35:47;16.60;92.00
6146;DHT22;3104;50.348;7.620;2022-11-02T13:38:25;16.40;90.60
6146;DHT22;3104;50.348;7.620;2022-11-02T13:41:09;16.20;86.80
6146;DHT22;3104;50.348;7.620;2022-11-02T13:48:58;16.20;84.30
6146;DHT22;3104;50.348;7.620;2022-11-02T13:51:39;16.20;88.40
6146;DHT22;3104;50.348;7.620;2022-11-02T13:56:46;16.00;88.10
6146;DHT22;3104;50.348;7.620;2022-11-02T13:59:33;16.00;89.70
6146;DHT22;3104;50.348;7.620;2022-11-02T14:02:03;15.70;92.00
6146;DHT22;3104;50.348;7.620;2022-11-02T14:04:41;15.70;95.00
6146;DHT22;3104;50.348;7.620;2022-11-02T14:09:43;15.90;93.50
6146;DHT22;3104;50.348;7.620;2022-11-02T14:25:54;16.00;86.70
6146;DHT22;3104;50.348;7.620;2022-11-02T14:34:13;15.80;78.20
6146;DHT22;3104;50.348;7.620;2022-11-02T14:37:05;15.70;83.50
6146;DHT22;3104;50.348;7.620;2022-11-02T14:48:14;15.40;92.20
6146;DHT22;3104;50.348;7.620;2022-11-02T14:50:42;15.40;93.00
6146;DHT22;3104;50.348;7.620;2022-11-02T14:53:23;15.40;91.20
6146;DHT22;3104;50.348;7.620;2022-11-02T14:55:54;15.50;92.10
6146;DHT22;3104;50.348;7.620;2022-11-02T14:58:32;15.50;91.90
6146;DHT22;3104;50.348;7.620;2022-11-02T15:01:01;15.40;89.40
6146;DHT22;3104;50.348;7.620;2022-11-02T15:08:34;15.10;95.00
6146;DHT22;3104;50.348;7.620;2022-11-02T15:11:41;15.10;94.00
6146;DHT22;3104;50.348;7.620;2022-11-02T15:14:29;15.10;95.10
6146;DHT22;3104;50.348;7.620;2022-11-02T15:16:55;15.20;94.60
6146;DHT22;3104;50.348;7.620;2022-11-02T15:22:36;15.10;96.40
6146;DHT22;3104;50.348;7.620;2022-11-02T15:27:39;15.00;98.60
6146;DHT22;3104;50.348;7.620;2022-11-02T15:30:10;15.10;98.20
6146;DHT22;3104;50.348;7.620;2022-11-02T15:32:41;14.90;97.70
6146;DHT22;3104;50.348;7.620;2022-11-02T15:35:29;14.90;97.60
6146;DHT22;3104;50.348;7.620;2022-11-02T15:37:58;15.00;97.80
6146;DHT22;3104;50.348;7.620;2022-11-02T15:40:32;14.90;95.80
6146;DHT22;3104;50.348;7.620;2022-11-02T15:43:04;14.70;97.10
6146;DHT22;3104;50.348;7.620;2022-11-02T15:54:29;14.60;97.30
6146;DHT22;3104;50.348;7.620;2022-11-02T16:04:44;14.40;99.90
6146;DHT22;3104;50.348;7.620;2022-11-02T16:07:12;14.50;99.90
6146;DHT22;3104;50.348;7.620;2022-11-02T16:09:39;14.60;99.90
6146;DHT22;3104;50.348;7.620;2022-11-02T16:14:44;14.50;99.90
6146;DHT22;3104;50.348;7.620;2022-11-02T16:17:33;14.20;99.90
6146;DHT22;3104;50.348;7.620;2022-11-02T16:20:15;14.20;99.90
6146;DHT22;3104;50.348;7.620;2022-11-02T16:22:50;14.40;99.90
6146;DHT22;3104;50.348;7.620;2022-11-02T16:26:05;14.00;99.90
6146;DHT22;3104;50.348;7.620;2022-11-02T16:28:35;13.90;99.90
6146;DHT22;3104;50.348;7.620;2022-11-02T16:33:45;13.90;99.90
6146;DHT22;3104;50.348;7.620;2022-11-02T16:36:23;14.10;99.90
6146;DHT22;3104;50.348;7.620;2022-11-02T16:39:13;14.10;99.90
6146;DHT22;3104;50.348;7.620;2022-11-02T16:41:46;13.70;99.90
6146;DHT22;3104;50.348;7.620;2022-11-02T16:44:31;14.00;99.90
6146;DHT22;3104;50.348;7.620;2022-11-02T16:49:33;14.30;99.90
6146;DHT22;3104;50.348;7.620;2022-11-02T16:52:30;14.40;99.90
6146;DHT22;3104;50.348;7.620;2022-11-02T16:54:56;14.40;99.90
6146;DHT22;3104;50.348;7.620;2022-11-02T16:57:35;14.40;99.90
6146;DHT22;3104;50.348;7.620;2022-11-02T17:00:17;14.20;99.90
6146;DHT22;3104;50.348;7.620;2022-11-02T17:02:43;14.20;99.90
6146;DHT22;3104;50.348;7.620;2022-11-02T17:05:16;14.20;99.90
6146;DHT22;3104;50.348;7.620;2022-11-02T17:07:49;14.10;99.90
6146;DHT22;3104;50.348;7.620;2022-11-02T17:10:23;13.90;99.90
6146;DHT22;3104;50.348;7.620;2022-11-02T17:12:50;13.90;99.90
6146;DHT22;3104;50.348;7.620;2022-11-02T17:15:27;13.80;99.90
6146;DHT22;3104;50.348;7.620;2022-11-02T17:20:35;13.40;99.90
6146;DHT22;3104;50.348;7.620;2022-11-02T17:23:03;13.30;99.90
6146;DHT22;3104;50.348;7.620;2022-11-02T17:25:37;13.30;99.90
6146;DHT22;3104;50.348;7.620;2022-11-02T17:28:45;13.20;99.90
6146;DHT22;3104;50.348;7.620;2022-11-02T17:33:45;13.00;99.90
6146;DHT22;3104;50.348;7.620;2022-11-02T17:36:12;12.90;99.90
6146;DHT22;3104;50.348;7.620;2022-11-02T17:38:38;12.60;99.90
6146;DHT22;3104;50.348;7.620;2022-11-02T17:41:04;12.80;99.90
6146;DHT22;3104;50.348;7.620;2022-11-02T17:43:50;12.60;99.90
6146;DHT22;3104;50.348;7.620;2022-11-02T17:46:16;12.30;99.90
6146;DHT22;3104;50.348;7.620;2022-11-02T17:48:41;12.10;99.90
6146;DHT22;3104;50.348;7.620;2022-11-02T17:51:08;11.90;99.90
6146;DHT22;3104;50.348;7.620;2022-11-02T17:53:35;11.70;99.90
6146;DHT22;3104;50.348;7.620;2022-11-02T17:56:00;11.60;99.90
6146;DHT22;3104;50.348;7.620;2022-11-02T17:58:26;11.60;99.90
6146;DHT22;3104;50.348;7.620;2022-11-02T18:00:51;11.80;99.90
6146;DHT22;3104;50.348;7.620;2022-11-02T18:03:20;12.20;99.90
6146;DHT22;3104;50.348;7.620;2022-11-02T18:05:46;12.20;99.90
6146;DHT22;3104;50.348;7.620;2022-11-02T18:08:14;12.30;99.90
6146;DHT22;3104;50.348;7.620;2022-11-02T18:10:41;12.30;99.90
6146;DHT22;3104;50.348;7.620;2022-11-02T18:13:16;12.20;99.90
6146;DHT22;3104;50.348;7.620;2022-11-02T18:15:42;12.40;99.90
6146;DHT22;3104;50.348;7.620;2022-11-02T18:18:08;12.80;99.90
6146;DHT22;3104;50.348;7.620;2022-11-02T18:20:34;12.80;99.90
6146;DHT22;3104;50.348;7.620;2022-11-02T18:23:00;12.60;99.90
6146;DHT22;3104;50.348;7.620;2022-11-02T18:25:27;12.40;99.90
6146;DHT22;3104;50.348;7.620;2022-11-02T18:27:58;12.30;99.90
6146;DHT22;3104;50.348;7.620;2022-11-02T18:30:25;12.60;99.90
6146;DHT22;3104;50.348;7.620;2022-11-02T18:32:52;12.50;99.90
6146;DHT22;3104;50.348;7.620;2022-11-02T18:35:19;12.40;99.90
6146;DHT22;3104;50.348;7.620;2022-11-02T18:37:45;12.10;99.90
6146;DHT22;3104;50.348;7.620;2022-11-02T18:40:13;11.90;99.90
6146;DHT22;3104;50.348;7.620;2022-11-02T18:42:40;12.00;99.90
6146;DHT22;3104;50.348;7.620;2022-11-02T18:45:07;12.20;99.90
6146;DHT22;3104;50.348;7.620;2022-11-02T18:47:33;12.20;99.90
6146;DHT22;3104;50.348;7.620;2022-11-02T18:49:58;12.10;99.90
6146;DHT22;3104;50.348;7.620;2022-11-02T18:52:25;12.10;99.90
6146;DHT22;3104;50.348;7.620;2022-11-02T18:54:51;12.10;99.90
6146;DHT22;3104;50.348;7.620;2022-11-02T18:57:18;12.10;99.90
6146;DHT22;3104;50.348;7.620;2022-11-02T18:59:44;12.10;99.90
6146;DHT22;3104;50.348;7.620;2022-11-02T19:02:10;12.10;99.90
6146;DHT22;3104;50.348;7.620;2022-11-02T19:04:36;11.90;99.90
6146;DHT22;3104;50.348;7.620;2022-11-02T19:07:01;11.40;99.90
6146;DHT22;3104;50.348;7.620;2022-11-02T19:09:46;11.30;99.90